createdAt,value
2022-11-05T00:00:50.405Z,8.60
2022-11-05T00:06:22.976Z,8.60
2022-11-05T00:09:09.036Z,8.60
2022-11-05T00:14:42.304Z,8.70
2022-11-05T00:17:09.845Z,8.80
2022-11-05T00:19:37.373Z,8.80
2022-11-05T00:22:23.367Z,8.80
2022-11-05T00:25:09.295Z,8.80
2022-11-05T00:27:36.863Z,8.80
2022-11-05T00:30:09.904Z,8.70
2022-11-05T00:32:37.990Z,8.70
2022-11-05T00:40:03.118Z,8.60
2022-11-05T00:45:17.692Z,8.60
2022-11-05T00:48:04.173Z,8.60
2022-11-05T00:53:00.636Z,8.60
2022-11-05T00:55:38.414Z,8.50
2022-11-05T00:58:21.773Z,8.50
2022-11-05T01:00:52.617Z,8.50
2022-11-05T01:03:23.157Z,8.50
2022-11-05T01:05:54.798Z,8.50
2022-11-05T01:08:25.694Z,8.40
2022-11-05T01:10:56.960Z,8.40
2022-11-05T01:13:28.316Z,8.40
2022-11-05T01:15:57.592Z,8.40
2022-11-05T01:18:25.719Z,8.40
2022-11-05T01:20:53.650Z,9.50
2022-11-05T01:25:50.639Z,8.20
2022-11-05T01:28:18.750Z,8.20
2022-11-05T01:30:46.722Z,8.20
2022-11-05T01:33:15.672Z,8.10
2022-11-05T01:38:11.550Z,8.00
2022-11-05T01:40:43.259Z,8.00
2022-11-05T01:43:17.629Z,7.90
2022-11-05T01:45:49.651Z,8.00
2022-11-05T01:48:28.671Z,7.90
2022-11-05T01:53:36.351Z,7.90
2022-11-05T01:56:25.089Z,7.90
2022-11-05T01:59:13.700Z,7.80
2022-11-05T02:04:14.506Z,7.80
2022-11-05T02:09:22.418Z,7.90
2022-11-05T02:11:51.399Z,7.80
2022-11-05T02:17:15.428Z,7.90
2022-11-05T02:20:33.619Z,7.90
2022-11-05T02:23:35.071Z,7.80
2022-11-05T02:28:58.326Z,7.80
2022-11-05T02:31:56.734Z,7.80
2022-11-05T02:35:09.764Z,7.80
2022-11-05T02:37:55.238Z,7.80
2022-11-05T02:40:36.118Z,7.80
2022-11-05T02:45:37.482Z,7.80
2022-11-05T02:48:17.186Z,7.80
2022-11-05T02:51:38.833Z,7.80
2022-11-05T02:56:38.945Z,7.80
2022-11-05T03:01:37.033Z,7.80
2022-11-05T03:04:09.541Z,7.80
2022-11-05T03:07:00.267Z,7.80
2022-11-05T03:10:08.962Z,7.80
2022-11-05T03:12:50.880Z,7.90
2022-11-05T03:15:49.389Z,7.90
2022-11-05T03:18:32.904Z,7.90
2022-11-05T03:21:24.324Z,8.00
2022-11-05T03:24:03.430Z,8.00
2022-11-05T03:26:38.841Z,8.10
2022-11-05T03:29:11.481Z,8.00
2022-11-05T03:31:41.601Z,8.10
2022-11-05T03:34:12.763Z,8.10
2022-11-05T03:36:48.752Z,8.10
2022-11-05T03:41:51.951Z,8.20
2022-11-05T03:44:26.555Z,8.20
2022-11-05T03:46:58.811Z,8.20
2022-11-05T03:49:32.002Z,8.30
2022-11-05T03:52:17.967Z,8.30
2022-11-05T03:54:46.608Z,8.30
2022-11-05T03:57:25.623Z,8.40
2022-11-05T03:59:53.189Z,8.40
2022-11-05T04:02:24.258Z,8.40
2022-11-05T04:04:53.119Z,8.40
2022-11-05T04:07:39.114Z,8.40
2022-11-05T04:10:25.144Z,8.40
2022-11-05T04:13:11.522Z,8.40
2022-11-05T04:21:12.024Z,8.40
2022-11-05T04:26:26.164Z,8.40
2022-11-05T04:29:12.519Z,8.40
2022-11-05T04:31:40.085Z,8.40
2022-11-05T04:34:07.634Z,8.40
2022-11-05T04:39:03.253Z,8.40
2022-11-05T04:43:58.807Z,8.40
2022-11-05T04:46:26.471Z,8.40
2022-11-05T04:48:53.980Z,8.30
2022-11-05T04:51:21.543Z,8.30
2022-11-05T04:53:49.003Z,8.30
2022-11-05T04:56:21.965Z,8.30
2022-11-05T05:01:20.472Z,8.30
2022-11-05T05:03:49.219Z,8.30
2022-11-05T05:06:17.328Z,10.30
2022-11-05T05:08:46.501Z,8.30
2022-11-05T05:11:16.320Z,8.30
2022-11-05T05:13:43.893Z,8.30
2022-11-05T05:16:29.558Z,8.30
2022-11-05T05:18:57.199Z,8.30
2022-11-05T05:21:39.731Z,8.30
2022-11-05T05:26:42.204Z,8.40
2022-11-05T05:29:10.886Z,8.30
2022-11-05T05:34:07.829Z,8.40
2022-11-05T05:36:35.349Z,8.50
2022-11-05T05:39:06.465Z,8.40
2022-11-05T05:41:34.280Z,8.50
2022-11-05T05:46:29.656Z,8.50
2022-11-05T05:51:25.421Z,8.50
2022-11-05T05:53:54.706Z,8.50
2022-11-05T05:56:22.211Z,8.50
2022-11-05T06:01:19.716Z,8.50
2022-11-05T06:03:49.262Z,8.50
2022-11-05T06:06:21.277Z,8.50
2022-11-05T06:08:49.240Z,8.50
2022-11-05T06:11:16.821Z,11.50
2022-11-05T06:13:44.485Z,8.50
2022-11-05T06:16:12.325Z,8.50
2022-11-05T06:18:39.948Z,8.50
2022-11-05T06:21:10.673Z,8.50
2022-11-05T06:23:40.158Z,8.50
2022-11-05T06:26:13.671Z,8.50
2022-11-05T06:31:14.094Z,8.60
2022-11-05T06:33:41.999Z,8.50
2022-11-05T06:36:14.587Z,8.50
2022-11-05T06:38:42.243Z,8.50
2022-11-05T06:41:10.670Z,8.50
2022-11-05T06:46:06.872Z,8.40
2022-11-05T06:48:34.622Z,8.40
2022-11-05T06:53:30.854Z,8.40
2022-11-05T06:56:01.513Z,8.40
2022-11-05T06:58:29.584Z,8.40
2022-11-05T07:01:01.536Z,8.40
2022-11-05T07:06:00.260Z,8.40
2022-11-05T07:08:32.472Z,8.40
2022-11-05T07:11:00.897Z,8.30
2022-11-05T07:13:28.523Z,8.30
2022-11-05T07:18:24.411Z,8.30
2022-11-05T07:25:47.771Z,8.40
2022-11-05T07:30:43.248Z,8.40
2022-11-05T07:38:11.157Z,8.50
2022-11-05T07:45:34.789Z,8.50
2022-11-05T07:48:04.046Z,8.50
2022-11-05T07:50:34.629Z,8.60
2022-11-05T07:53:14.766Z,8.60
2022-11-05T07:55:43.936Z,8.60
2022-11-05T08:00:40.076Z,8.70
2022-11-05T08:03:09.084Z,8.70
2022-11-05T08:05:39.530Z,8.80
2022-11-05T08:08:08.830Z,8.80
2022-11-05T08:10:37.688Z,8.80
2022-11-05T08:13:06.337Z,8.90
2022-11-05T08:15:35.330Z,8.90
2022-11-05T08:18:05.241Z,8.90
2022-11-05T08:20:33.850Z,9.00
2022-11-05T08:23:01.780Z,9.00
2022-11-05T08:28:01.938Z,9.10
2022-11-05T08:30:30.321Z,9.10
2022-11-05T08:33:00.243Z,9.20
2022-11-05T08:35:28.459Z,9.20
2022-11-05T08:38:00.570Z,9.20
2022-11-05T08:40:28.696Z,9.30
2022-11-05T08:42:59.708Z,9.40
2022-11-05T08:45:27.614Z,9.40
2022-11-05T08:48:02.198Z,9.40
2022-11-05T08:50:30.006Z,9.50
2022-11-05T08:55:26.469Z,9.50
2022-11-05T08:57:58.853Z,9.50
2022-11-05T09:00:28.741Z,9.60
2022-11-05T09:03:02.749Z,9.60
2022-11-05T09:10:29.277Z,9.60
2022-11-05T09:12:56.773Z,9.60
2022-11-05T09:15:24.853Z,9.60
2022-11-05T09:17:52.411Z,9.60
2022-11-05T09:22:47.993Z,9.70
2022-11-05T09:25:16.041Z,9.70
2022-11-05T09:30:13.495Z,9.80
2022-11-05T09:32:41.425Z,9.90
2022-11-05T09:35:09.968Z,10.00
2022-11-05T09:37:38.102Z,10.00
2022-11-05T09:42:41.702Z,10.20
2022-11-05T09:45:16.735Z,10.20
2022-11-05T09:47:58.791Z,10.30
2022-11-05T09:50:33.740Z,10.30
2022-11-05T09:53:02.161Z,10.40
2022-11-05T09:55:35.626Z,10.40
2022-11-05T09:58:12.956Z,10.40
2022-11-05T10:00:41.846Z,10.50
2022-11-05T10:03:17.756Z,10.50
2022-11-05T10:05:46.843Z,10.60
2022-11-05T10:08:23.431Z,10.60
2022-11-05T10:10:56.499Z,10.70
2022-11-05T10:13:36.544Z,10.80
2022-11-05T10:16:28.583Z,10.90
2022-11-05T10:19:17.111Z,11.00
2022-11-05T10:22:05.472Z,11.10
2022-11-05T10:24:32.438Z,11.10
2022-11-05T10:27:00.141Z,11.10
2022-11-05T10:29:30.730Z,11.20
2022-11-05T10:32:00.577Z,11.20
2022-11-05T10:34:32.293Z,11.20
2022-11-05T10:37:00.292Z,11.10
2022-11-05T10:39:29.692Z,11.10
2022-11-05T10:42:24.301Z,11.10
2022-11-05T10:45:06.995Z,11.00
2022-11-05T10:48:13.453Z,11.10
2022-11-05T10:50:41.445Z,11.00
2022-11-05T10:53:16.102Z,10.90
2022-11-05T10:55:50.121Z,10.90
2022-11-05T10:58:17.657Z,10.90
2022-11-05T11:00:50.007Z,10.90
2022-11-05T11:03:46.138Z,10.90
2022-11-05T11:06:30.813Z,10.80
2022-11-05T11:09:02.243Z,10.80
2022-11-05T11:11:37.727Z,10.90
2022-11-05T11:14:27.304Z,10.90
2022-11-05T11:16:57.392Z,10.80
2022-11-05T11:19:29.785Z,10.90
2022-11-05T11:22:13.716Z,10.90
2022-11-05T11:24:44.069Z,10.90
2022-11-05T11:27:22.810Z,10.80
2022-11-05T11:29:57.828Z,10.80
2022-11-05T11:32:31.799Z,10.90
2022-11-05T11:37:35.049Z,11.00
2022-11-05T11:40:11.371Z,11.00
2022-11-05T11:42:41.503Z,10.90
2022-11-05T11:45:33.980Z,10.90
2022-11-05T11:48:05.340Z,10.90
2022-11-05T11:50:34.616Z,10.90
2022-11-05T11:53:36.974Z,11.00
2022-11-05T11:56:19.516Z,10.90
2022-11-05T11:58:54.583Z,11.00
2022-11-05T12:01:40.959Z,11.00
2022-11-05T12:04:34.485Z,11.00
2022-11-05T12:07:07.900Z,11.00
2022-11-05T12:10:04.431Z,11.10
2022-11-05T12:12:40.911Z,11.10
2022-11-05T12:15:11.528Z,11.10
2022-11-05T12:17:42.261Z,7.00
2022-11-05T12:20:32.625Z,11.10
2022-11-05T12:23:42.164Z,11.10
2022-11-05T12:26:23.990Z,11.20
2022-11-05T12:29:18.892Z,11.20
2022-11-05T12:31:55.785Z,11.30
2022-11-05T12:34:56.993Z,11.30
2022-11-05T12:37:52.775Z,11.40
2022-11-05T12:40:23.414Z,11.40
2022-11-05T12:45:43.171Z,11.40
2022-11-05T12:48:34.186Z,11.50
2022-11-05T12:51:10.568Z,11.50
2022-11-05T12:54:01.041Z,11.60
2022-11-05T12:56:59.247Z,11.60
2022-11-05T12:59:37.455Z,11.60
2022-11-05T13:02:22.504Z,11.70
2022-11-05T13:05:01.848Z,11.70
2022-11-05T13:07:37.931Z,11.70
2022-11-05T13:10:19.159Z,11.80
2022-11-05T13:12:53.431Z,11.80
2022-11-05T13:15:32.609Z,11.90
2022-11-05T13:18:05.793Z,11.90
2022-11-05T13:20:38.805Z,12.00
2022-11-05T13:23:24.328Z,12.00
2022-11-05T13:26:09.600Z,12.10
2022-11-05T13:28:57.441Z,12.20
2022-11-05T13:31:31.067Z,12.20
2022-11-05T13:34:04.866Z,12.30
2022-11-05T13:37:13.225Z,12.40
2022-11-05T13:39:52.946Z,12.40
2022-11-05T13:42:20.568Z,12.50
2022-11-05T13:44:50.943Z,12.60
2022-11-05T13:47:31.457Z,12.70
2022-11-05T13:50:17.955Z,12.80
2022-11-05T13:53:04.473Z,12.80
2022-11-05T13:56:01.488Z,12.90
2022-11-05T13:58:52.835Z,12.90
2022-11-05T14:01:35.659Z,12.90
2022-11-05T14:06:35.778Z,12.90
2022-11-05T14:09:20.080Z,12.90
2022-11-05T14:11:55.042Z,12.90
2022-11-05T14:14:34.221Z,11.60
2022-11-05T14:17:08.062Z,12.80
2022-11-05T14:19:49.882Z,12.80
2022-11-05T14:22:32.766Z,12.80
2022-11-05T14:25:19.623Z,12.70
2022-11-05T14:27:49.538Z,12.70
2022-11-05T14:30:46.203Z,12.80
2022-11-05T14:33:26.334Z,12.70
2022-11-05T14:36:22.813Z,12.70
2022-11-05T14:38:53.598Z,12.70
2022-11-05T14:41:22.038Z,12.70
2022-11-05T14:44:05.072Z,12.70
2022-11-05T14:46:47.922Z,12.70
2022-11-05T14:49:46.230Z,12.70
2022-11-05T14:52:17.244Z,12.60
2022-11-05T14:54:53.828Z,12.60
2022-11-05T14:57:43.324Z,12.60
2022-11-05T15:00:29.692Z,12.50
2022-11-05T15:03:03.127Z,12.40
2022-11-05T15:05:39.855Z,12.40
2022-11-05T15:08:29.713Z,12.40
2022-11-05T15:11:07.551Z,12.30
2022-11-05T15:13:42.822Z,12.30
2022-11-05T15:16:16.494Z,12.30
2022-11-05T15:18:46.622Z,12.20
2022-11-05T15:21:17.037Z,10.50
2022-11-05T15:23:47.501Z,12.30
2022-11-05T15:26:45.802Z,12.30
2022-11-05T15:29:22.624Z,12.30
2022-11-05T15:34:26.295Z,12.30
2022-11-05T15:37:20.986Z,12.40
2022-11-05T15:42:27.700Z,12.30
2022-11-05T15:47:24.843Z,12.40
2022-11-05T15:50:03.944Z,12.40
2022-11-05T15:52:49.455Z,12.40
2022-11-05T15:58:03.349Z,12.40
2022-11-05T16:00:36.723Z,12.40
2022-11-05T16:03:15.907Z,12.40
2022-11-05T16:05:46.665Z,12.40
2022-11-05T16:08:23.993Z,12.60
2022-11-05T16:10:54.266Z,12.30
2022-11-05T16:13:32.772Z,11.80
2022-11-05T16:16:13.738Z,11.40
2022-11-05T16:18:42.663Z,11.20
2022-11-05T16:21:12.623Z,10.90
2022-11-05T16:23:48.144Z,10.80
2022-11-05T16:29:37.796Z,10.50
2022-11-05T16:32:31.105Z,10.50
2022-11-05T16:35:05.745Z,10.40
2022-11-05T16:37:41.704Z,10.40
2022-11-05T16:40:15.562Z,10.40
2022-11-05T16:42:44.372Z,10.30
2022-11-05T16:45:14.990Z,10.30
2022-11-05T16:50:18.110Z,10.20
2022-11-05T16:52:47.468Z,10.10
2022-11-05T16:55:16.279Z,10.00
2022-11-05T16:57:46.669Z,10.00
2022-11-05T17:00:19.101Z,9.90
2022-11-05T17:05:19.462Z,9.90
2022-11-05T17:07:48.714Z,9.90
2022-11-05T17:10:16.976Z,9.90
2022-11-05T17:12:46.426Z,9.90
2022-11-05T17:15:22.181Z,9.90
2022-11-05T17:17:53.043Z,10.00
2022-11-05T17:20:39.424Z,9.90
2022-11-05T17:23:24.974Z,10.00
2022-11-05T17:26:01.498Z,10.00
2022-11-05T17:31:13.032Z,10.00
2022-11-05T17:33:41.278Z,9.90
2022-11-05T17:36:14.149Z,9.90
2022-11-05T17:41:20.344Z,9.70
2022-11-05T17:46:17.702Z,9.60
2022-11-05T17:51:19.237Z,9.40
2022-11-05T17:53:49.303Z,9.30
2022-11-05T17:56:29.195Z,9.30
2022-11-05T17:59:03.945Z,9.10
2022-11-05T18:01:35.893Z,9.10
2022-11-05T18:06:38.221Z,9.10
2022-11-05T18:09:07.724Z,9.00
2022-11-05T18:14:04.435Z,9.10
2022-11-05T18:19:00.288Z,9.00
2022-11-05T18:26:23.846Z,9.00
2022-11-05T18:28:51.345Z,8.90
2022-11-05T18:33:49.804Z,8.70
2022-11-05T18:36:25.573Z,8.60
2022-11-05T18:38:53.817Z,8.60
2022-11-05T18:43:49.468Z,8.50
2022-11-05T18:46:43.025Z,8.50
2022-11-05T18:51:33.608Z,8.30
2022-11-05T18:56:29.085Z,8.10
2022-11-05T18:59:21.817Z,8.00
2022-11-05T19:01:46.085Z,7.90
2022-11-05T19:11:40.252Z,7.60
2022-11-05T19:16:35.812Z,7.40
2022-11-05T19:19:06.068Z,7.30
2022-11-05T19:24:03.676Z,7.10
2022-11-05T19:31:31.284Z,7.00
2022-11-05T19:38:58.465Z,6.80
2022-11-05T19:41:26.721Z,6.70
2022-11-05T19:46:23.764Z,6.50
2022-11-05T19:53:51.391Z,6.30
2022-11-05T19:56:22.681Z,6.20
2022-11-05T20:03:46.699Z,6.00
2022-11-05T20:06:15.905Z,6.00
2022-11-05T20:09:07.193Z,6.00
2022-11-05T20:11:32.434Z,5.90
2022-11-05T20:16:32.219Z,5.80
2022-11-05T20:18:59.808Z,5.70
2022-11-05T20:23:59.532Z,5.70
2022-11-05T20:26:27.476Z,5.70
2022-11-05T20:28:56.066Z,5.70
2022-11-05T20:31:24.086Z,5.60
2022-11-05T20:38:55.423Z,5.50
2022-11-05T20:41:23.506Z,5.40
2022-11-05T20:51:18.833Z,5.10
2022-11-05T20:56:19.146Z,4.90
2022-11-05T21:01:16.651Z,4.70
2022-11-05T21:03:45.720Z,4.60
2022-11-05T21:11:10.839Z,4.50
2022-11-05T21:16:09.551Z,4.40
2022-11-05T21:21:11.517Z,4.40
2022-11-05T21:26:09.089Z,4.50
2022-11-05T21:28:39.537Z,4.50
2022-11-05T21:31:08.004Z,4.50
2022-11-05T21:38:35.982Z,4.40
2022-11-05T21:41:04.902Z,4.40
2022-11-05T21:46:01.930Z,4.50
2022-11-05T21:48:30.576Z,4.50
2022-11-05T21:54:03.913Z,4.50
2022-11-05T21:59:39.563Z,4.50
2022-11-05T22:02:08.656Z,4.50
2022-11-05T22:04:39.110Z,4.50
2022-11-05T22:07:08.984Z,4.50
2022-11-05T22:12:05.446Z,4.50
2022-11-05T22:24:32.121Z,4.60
2022-11-05T22:27:02.227Z,4.60
2022-11-05T22:29:30.757Z,4.60
2022-11-05T22:31:58.392Z,4.60
2022-11-05T22:36:54.585Z,4.50
2022-11-05T22:39:22.508Z,4.50
2022-11-05T22:41:53.077Z,4.50
2022-11-05T22:44:20.637Z,4.40
2022-11-05T22:49:17.017Z,4.40
2022-11-05T22:56:43.792Z,6.00
2022-11-05T22:59:16.678Z,4.30
2022-11-05T23:01:45.475Z,4.30
2022-11-05T23:04:14.326Z,4.30
2022-11-05T23:07:00.960Z,4.40
2022-11-05T23:09:50.196Z,4.40
2022-11-05T23:12:32.726Z,4.50
2022-11-05T23:15:02.219Z,4.60
2022-11-05T23:20:38.748Z,4.70
2022-11-05T23:23:51.442Z,4.70
2022-11-05T23:39:39.703Z,4.80
2022-11-05T23:42:28.539Z,4.80
2022-11-05T23:45:15.069Z,4.60
2022-11-05T23:48:01.806Z,4.70
2022-11-05T23:50:34.384Z,4.70
2022-11-05T23:55:34.171Z,4.60
